createdAt,value
2016-12-29T00:00:06.986Z,24
2016-12-29T00:02:06.990Z,24
2016-12-29T00:04:06.688Z,24
2016-12-29T00:06:06.407Z,24
2016-12-29T00:08:07.308Z,24
2016-12-29T00:10:07.074Z,24
2016-12-29T00:12:16.966Z,23
2016-12-29T00:14:07.034Z,23
2016-12-29T00:16:06.773Z,24
2016-12-29T00:18:06.710Z,24
2016-12-29T00:20:06.512Z,24
2016-12-29T00:22:07.199Z,24
2016-12-29T00:24:07.041Z,24
2016-12-29T00:26:09.395Z,24
2016-12-29T00:28:09.663Z,23
2016-12-29T00:30:09.908Z,24
2016-12-29T00:32:06.651Z,22
2016-12-29T00:34:07.359Z,24
2016-12-29T00:36:07.057Z,24
2016-12-29T00:38:06.811Z,24
2016-12-29T00:40:06.914Z,24
2016-12-29T00:42:09.172Z,24
2016-12-29T00:44:06.896Z,22
2016-12-29T00:46:16.820Z,22
2016-12-29T00:48:06.638Z,22
2016-12-29T00:50:07.711Z,24
2016-12-29T00:52:06.549Z,24
2016-12-29T00:54:12.364Z,24
2016-12-29T00:56:12.630Z,23
2016-12-29T00:58:07.403Z,22
2016-12-29T01:00:07.147Z,24
2016-12-29T01:02:07.093Z,24
2016-12-29T01:04:09.324Z,24
2016-12-29T01:06:07.076Z,23
2016-12-29T01:08:12.197Z,22
2016-12-29T01:10:09.430Z,22
2016-12-29T01:12:07.242Z,24
2016-12-29T01:14:09.794Z,24
2016-12-29T01:16:06.509Z,24
2016-12-29T01:18:06.490Z,24
2016-12-29T01:20:07.259Z,24
2016-12-29T01:22:06.957Z,24
2016-12-29T01:24:14.242Z,22
2016-12-29T01:26:12.015Z,22
2016-12-29T01:28:09.414Z,22
2016-12-29T01:30:09.636Z,24
2016-12-29T01:32:07.541Z,24
2016-12-29T01:34:14.880Z,24
2016-12-29T01:36:09.069Z,23
2016-12-29T01:38:07.136Z,22
2016-12-29T01:40:09.320Z,24
2016-12-29T01:42:07.055Z,24
2016-12-29T01:44:07.107Z,23
2016-12-29T01:46:06.899Z,23
2016-12-29T01:48:06.638Z,24
2016-12-29T01:50:07.415Z,24
2016-12-29T01:52:09.685Z,23
2016-12-29T01:54:06.458Z,22
2016-12-29T01:56:07.344Z,23
2016-12-29T01:58:09.616Z,23
2016-12-29T02:00:12.793Z,22
2016-12-29T02:02:16.929Z,21
2016-12-29T02:04:09.170Z,24
2016-12-29T02:06:16.994Z,22
2016-12-29T02:08:06.929Z,22
2016-12-29T02:10:19.275Z,21
2016-12-29T02:12:12.003Z,23
2016-12-29T02:14:06.964Z,22
2016-12-29T02:16:07.032Z,24
2016-12-29T02:18:07.009Z,23
2016-12-29T02:20:07.082Z,23
2016-12-29T02:22:06.848Z,23
2016-12-29T02:24:06.663Z,23
2016-12-29T02:26:07.537Z,23
2016-12-29T02:28:07.260Z,23
2016-12-29T02:30:09.526Z,23
2016-12-29T02:32:17.806Z,21
2016-12-29T02:34:06.503Z,21
2016-12-29T02:36:12.260Z,23
2016-12-29T02:38:07.276Z,21
2016-12-29T02:40:07.016Z,23
2016-12-29T02:42:06.758Z,23
2016-12-29T02:44:06.576Z,22
2016-12-29T02:46:07.291Z,23
2016-12-29T02:48:07.227Z,23
2016-12-29T02:50:17.466Z,22
2016-12-29T02:52:07.171Z,22
2016-12-29T02:54:06.830Z,22
2016-12-29T02:56:09.283Z,23
2016-12-29T02:58:09.479Z,22
2016-12-29T03:00:07.221Z,22
2016-12-29T03:02:06.949Z,22
2016-12-29T03:04:09.476Z,23
2016-12-29T03:06:07.232Z,23
2016-12-29T03:08:07.302Z,22
2016-12-29T03:10:12.247Z,22
2016-12-29T03:12:06.913Z,22
2016-12-29T03:14:06.807Z,22
2016-12-29T03:16:06.715Z,22
2016-12-29T03:18:07.034Z,22
2016-12-29T03:20:07.161Z,22
2016-12-29T03:22:10.475Z,22
2016-12-29T03:24:09.715Z,22
2016-12-29T03:26:10.653Z,22
2016-12-29T03:28:07.871Z,21
2016-12-29T03:30:06.801Z,22
2016-12-29T03:32:07.163Z,22
2016-12-29T03:34:08.105Z,22
2016-12-29T03:36:13.179Z,22
2016-12-29T03:38:14.241Z,22
2016-12-29T03:40:11.975Z,22
2016-12-29T03:42:12.768Z,21
2016-12-29T03:44:10.121Z,21
2016-12-29T03:46:07.042Z,22
2016-12-29T03:48:09.692Z,22
2016-12-29T03:50:13.316Z,21
2016-12-29T03:52:07.400Z,22
2016-12-29T03:54:07.093Z,22
2016-12-29T03:56:11.851Z,22
2016-12-29T03:58:14.370Z,22
2016-12-29T04:00:09.365Z,22
2016-12-29T04:02:10.143Z,22
2016-12-29T04:04:07.339Z,21
2016-12-29T04:06:09.870Z,22
2016-12-29T04:08:12.078Z,22
2016-12-29T04:10:07.699Z,21
2016-12-29T04:12:06.549Z,22
2016-12-29T04:14:10.914Z,22
2016-12-29T04:16:06.625Z,22
2016-12-29T04:18:06.629Z,22
2016-12-29T04:20:07.520Z,22
2016-12-29T04:22:07.741Z,22
2016-12-29T04:24:13.080Z,21
2016-12-29T04:26:06.925Z,21
2016-12-29T04:28:07.637Z,21
2016-12-29T04:30:07.396Z,22
2016-12-29T04:32:07.097Z,22
2016-12-29T04:34:09.752Z,22
2016-12-29T04:36:07.437Z,22
2016-12-29T04:38:10.261Z,22
2016-12-29T04:40:07.154Z,22
2016-12-29T04:42:08.309Z,22
2016-12-29T04:44:09.910Z,22
2016-12-29T04:46:10.405Z,21
2016-12-29T04:48:17.232Z,21
2016-12-29T04:50:13.762Z,22
2016-12-29T04:52:09.299Z,21
2016-12-29T04:54:12.311Z,22
2016-12-29T04:56:07.422Z,21
2016-12-29T04:58:07.524Z,22
2016-12-29T05:00:07.231Z,22
2016-12-29T05:02:07.091Z,22
2016-12-29T05:04:11.839Z,22
2016-12-29T05:06:06.512Z,21
2016-12-29T05:08:07.298Z,22
2016-12-29T05:10:09.495Z,21
2016-12-29T05:12:14.960Z,22
2016-12-29T05:14:14.398Z,21
2016-12-29T05:16:07.109Z,21
2016-12-29T05:18:12.157Z,22
2016-12-29T05:20:06.851Z,21
2016-12-29T05:22:06.547Z,21
2016-12-29T05:24:07.282Z,21
2016-12-29T05:26:07.648Z,21
2016-12-29T05:28:07.376Z,22
2016-12-29T05:30:12.163Z,22
2016-12-29T05:32:12.083Z,22
2016-12-29T05:34:09.331Z,21
2016-12-29T05:36:07.048Z,21
2016-12-29T05:38:17.054Z,21
2016-12-29T05:40:06.751Z,21
2016-12-29T05:42:09.037Z,22
2016-12-29T05:44:07.106Z,21
2016-12-29T05:46:06.792Z,21
2016-12-29T05:48:09.045Z,22
2016-12-29T05:50:06.960Z,22
2016-12-29T05:52:06.676Z,21
2016-12-29T05:54:10.032Z,21
2016-12-29T05:56:09.589Z,21
2016-12-29T05:58:07.261Z,22
2016-12-29T06:00:07.147Z,22
2016-12-29T06:02:06.951Z,21
2016-12-29T06:04:14.323Z,21
2016-12-29T06:06:07.020Z,21
2016-12-29T06:08:09.445Z,21
2016-12-29T06:10:07.207Z,21
2016-12-29T06:12:06.933Z,21
2016-12-29T06:14:06.643Z,21
2016-12-29T06:16:10.225Z,21
2016-12-29T06:18:09.660Z,21
2016-12-29T06:20:07.386Z,21
2016-12-29T06:22:07.194Z,21
2016-12-29T06:24:09.406Z,21
2016-12-29T06:26:07.315Z,22
2016-12-29T06:28:07.045Z,21
2016-12-29T06:30:09.361Z,21
2016-12-29T06:32:07.228Z,21
2016-12-29T06:34:06.960Z,21
2016-12-29T06:36:06.697Z,21
2016-12-29T06:38:08.969Z,21
2016-12-29T06:40:14.292Z,21
2016-12-29T06:42:19.677Z,21
2016-12-29T06:44:10.330Z,21
2016-12-29T06:46:14.642Z,21
2016-12-29T06:48:07.317Z,21
2016-12-29T06:50:12.472Z,21
2016-12-29T06:52:07.180Z,21
2016-12-29T06:54:09.437Z,21
2016-12-29T06:56:07.362Z,21
2016-12-29T06:58:09.599Z,21
2016-12-29T07:00:09.878Z,21
2016-12-29T07:02:09.128Z,21
2016-12-29T07:04:06.945Z,21
2016-12-29T07:06:11.745Z,21
2016-12-29T07:08:06.847Z,21
2016-12-29T07:10:11.640Z,21
2016-12-29T07:12:20.043Z,21
2016-12-29T07:14:16.904Z,21
2016-12-29T07:16:19.274Z,21
2016-12-29T07:18:07.193Z,21
2016-12-29T07:20:07.217Z,21
2016-12-29T07:22:06.961Z,21
2016-12-29T07:24:06.671Z,21
2016-12-29T07:26:10.265Z,21
2016-12-29T07:28:09.474Z,21
2016-12-29T07:30:09.714Z,21
2016-12-29T07:32:06.752Z,21
2016-12-29T07:34:06.470Z,21
2016-12-29T07:36:07.456Z,21
2016-12-29T07:38:09.881Z,21
2016-12-29T07:40:06.610Z,21
2016-12-29T07:42:09.826Z,21
2016-12-29T07:44:06.898Z,21
2016-12-29T07:46:06.586Z,21
2016-12-29T07:48:07.336Z,21
2016-12-29T07:50:07.171Z,21
2016-12-29T07:52:07.238Z,21
2016-12-29T07:54:06.878Z,21
2016-12-29T07:56:06.763Z,21
2016-12-29T07:58:14.162Z,21
2016-12-29T08:00:12.034Z,21
2016-12-29T08:02:06.781Z,21
2016-12-29T08:04:06.486Z,21
2016-12-29T08:06:07.216Z,21
2016-12-29T08:08:12.397Z,21
2016-12-29T08:10:07.112Z,21
2016-12-29T08:12:06.870Z,21
2016-12-29T08:14:12.097Z,21
2016-12-29T08:16:06.849Z,21
2016-12-29T08:18:09.310Z,21
2016-12-29T08:20:09.598Z,21
2016-12-29T08:22:07.340Z,21
2016-12-29T08:24:07.139Z,21
2016-12-29T08:26:06.936Z,20
2016-12-29T08:28:09.192Z,20
2016-12-29T08:30:19.518Z,20
2016-12-29T08:32:07.333Z,20
2016-12-29T08:34:12.140Z,20
2016-12-29T08:36:09.411Z,20
2016-12-29T08:38:07.448Z,20
2016-12-29T08:40:07.317Z,20
2016-12-29T08:42:07.019Z,20
2016-12-29T08:44:07.472Z,20
2016-12-29T08:46:07.249Z,20
2016-12-29T08:48:07.054Z,20
2016-12-29T08:50:14.541Z,20
2016-12-29T08:52:07.278Z,20
2016-12-29T08:54:14.656Z,20
2016-12-29T08:56:07.554Z,20
2016-12-29T08:58:07.258Z,20
2016-12-29T09:00:06.965Z,20
2016-12-29T09:02:09.271Z,20
2016-12-29T09:04:06.971Z,20
2016-12-29T09:06:09.196Z,20
2016-12-29T09:08:07.282Z,20
2016-12-29T09:10:07.031Z,20
2016-12-29T09:12:07.234Z,20
2016-12-29T09:14:07.096Z,20
2016-12-29T09:16:11.934Z,20
2016-12-29T09:18:09.436Z,20
2016-12-29T09:20:07.167Z,20
2016-12-29T09:22:06.866Z,20
2016-12-29T09:24:11.677Z,20
2016-12-29T09:26:07.809Z,20
2016-12-29T09:28:06.655Z,20
2016-12-29T09:30:07.304Z,20
2016-12-29T09:32:07.317Z,20
2016-12-29T09:34:07.070Z,20
2016-12-29T09:36:06.818Z,20
2016-12-29T09:38:11.640Z,20
2016-12-29T09:40:09.872Z,20
2016-12-29T09:42:06.610Z,20
2016-12-29T09:44:07.781Z,20
2016-12-29T09:46:06.512Z,20
2016-12-29T09:48:07.185Z,20
2016-12-29T09:50:07.300Z,20
2016-12-29T09:52:07.025Z,20
2016-12-29T09:54:06.956Z,20
2016-12-29T09:56:07.031Z,20
2016-12-29T09:58:06.749Z,20
2016-12-29T10:00:09.268Z,20
2016-12-29T10:02:07.315Z,20
2016-12-29T10:04:06.999Z,20
2016-12-29T10:06:06.719Z,20
2016-12-29T10:08:06.773Z,20
2016-12-29T10:10:11.655Z,21
2016-12-29T10:12:14.975Z,21
2016-12-29T10:14:06.741Z,20
2016-12-29T10:16:06.467Z,20
2016-12-29T10:18:07.411Z,20
2016-12-29T10:20:07.301Z,21
2016-12-29T10:22:06.984Z,20
2016-12-29T10:24:06.790Z,20
2016-12-29T10:26:11.618Z,20
2016-12-29T10:28:12.414Z,20
2016-12-29T10:30:07.168Z,21
2016-12-29T10:32:06.875Z,21
2016-12-29T10:34:06.639Z,21
2016-12-29T10:36:07.361Z,21
2016-12-29T10:38:09.744Z,21
2016-12-29T10:40:06.438Z,21
2016-12-29T10:42:09.674Z,21
2016-12-29T10:44:07.523Z,21
2016-12-29T10:46:07.277Z,21
2016-12-29T10:48:07.035Z,21
2016-12-29T10:50:06.897Z,21
2016-12-29T10:52:11.682Z,21
2016-12-29T10:54:14.015Z,21
2016-12-29T10:56:17.213Z,21
2016-12-29T10:58:06.965Z,21
2016-12-29T11:00:11.735Z,21
2016-12-29T11:02:09.150Z,21
2016-12-29T11:04:07.006Z,21
2016-12-29T11:06:06.691Z,21
2016-12-29T11:08:08.968Z,21
2016-12-29T11:10:14.270Z,21
2016-12-29T11:12:06.982Z,21
2016-12-29T11:14:07.009Z,21
2016-12-29T11:16:09.315Z,21
2016-12-29T11:18:12.261Z,21
2016-12-29T11:20:07.550Z,21
2016-12-29T11:22:07.366Z,21
2016-12-29T11:24:07.081Z,21
2016-12-29T11:26:09.473Z,21
2016-12-29T11:28:09.758Z,21
2016-12-29T11:30:09.002Z,21
2016-12-29T11:32:09.591Z,21
2016-12-29T11:34:07.335Z,21
2016-12-29T11:36:07.173Z,21
2016-12-29T11:38:09.581Z,21
2016-12-29T11:40:09.840Z,21
2016-12-29T11:42:09.011Z,21
2016-12-29T11:44:06.995Z,21
2016-12-29T11:46:06.678Z,21
2016-12-29T11:48:09.908Z,21
2016-12-29T11:50:16.939Z,21
2016-12-29T11:52:06.691Z,21
2016-12-29T11:54:11.418Z,21
2016-12-29T11:56:07.181Z,21
2016-12-29T11:58:09.445Z,21
2016-12-29T12:00:07.184Z,21
2016-12-29T12:02:07.010Z,21
2016-12-29T12:04:06.758Z,21
2016-12-29T12:06:09.180Z,21
2016-12-29T12:08:07.070Z,21
2016-12-29T12:10:06.942Z,20
2016-12-29T12:12:06.887Z,20
2016-12-29T12:14:11.818Z,21
2016-12-29T12:16:06.526Z,20
2016-12-29T12:18:14.047Z,21
2016-12-29T12:20:07.112Z,21
2016-12-29T12:22:09.464Z,20
2016-12-29T12:24:07.591Z,20
2016-12-29T12:26:10.049Z,20
2016-12-29T12:28:09.363Z,20
2016-12-29T12:30:09.564Z,20
2016-12-29T12:32:07.269Z,20
2016-12-29T12:34:07.008Z,20
2016-12-29T12:36:06.782Z,20
2016-12-29T12:38:11.540Z,20
2016-12-29T12:40:07.582Z,20
2016-12-29T12:42:07.332Z,20
2016-12-29T12:44:14.760Z,20
2016-12-29T12:46:06.425Z,20
2016-12-29T12:48:09.612Z,20
2016-12-29T12:50:07.573Z,20
2016-12-29T12:52:09.767Z,20
2016-12-29T12:54:06.494Z,20
2016-12-29T12:56:07.764Z,20
2016-12-29T12:58:08.992Z,20
2016-12-29T13:00:06.737Z,20
2016-12-29T13:02:06.660Z,20
2016-12-29T13:04:14.961Z,20
2016-12-29T13:06:14.295Z,20
2016-12-29T13:08:07.417Z,20
2016-12-29T13:10:12.174Z,20
2016-12-29T13:12:17.491Z,20
2016-12-29T13:14:07.379Z,20
2016-12-29T13:16:09.622Z,20
2016-12-29T13:18:06.861Z,20
2016-12-29T13:20:06.740Z,20
2016-12-29T13:22:06.603Z,20
2016-12-29T13:24:09.877Z,20
2016-12-29T13:26:06.627Z,20
2016-12-29T13:28:07.684Z,20
2016-12-29T13:30:06.373Z,20
2016-12-29T13:32:09.983Z,20
2016-12-29T13:34:14.271Z,20
2016-12-29T13:36:09.594Z,20
2016-12-29T13:38:07.646Z,20
2016-12-29T13:40:07.392Z,20
2016-12-29T13:42:09.614Z,20
2016-12-29T13:44:07.531Z,20
2016-12-29T13:46:09.721Z,20
2016-12-29T13:48:06.465Z,20
2016-12-29T13:50:12.546Z,20
2016-12-29T13:52:07.240Z,20
2016-12-29T13:54:06.975Z,20
2016-12-29T13:56:09.401Z,20
2016-12-29T13:58:09.636Z,20
2016-12-29T14:00:07.356Z,20
2016-12-29T14:02:07.219Z,20
2016-12-29T14:04:07.952Z,20
2016-12-29T14:06:06.795Z,20
2016-12-29T14:08:09.028Z,20
2016-12-29T14:10:09.225Z,20
2016-12-29T14:12:06.929Z,20
2016-12-29T14:14:09.245Z,20
2016-12-29T14:16:07.283Z,20
2016-12-29T14:18:07.153Z,20
2016-12-29T14:20:06.962Z,20
2016-12-29T14:22:14.270Z,20
2016-12-29T14:24:06.940Z,20
2016-12-29T14:26:06.833Z,20
2016-12-29T14:28:09.181Z,20
2016-12-29T14:30:06.925Z,20
2016-12-29T14:32:07.070Z,20
2016-12-29T14:34:06.810Z,20
2016-12-29T14:36:06.520Z,21
2016-12-29T14:38:06.892Z,21
2016-12-29T14:40:09.117Z,21
2016-12-29T14:42:06.929Z,21
2016-12-29T14:44:07.028Z,21
2016-12-29T14:46:09.475Z,21
2016-12-29T14:48:07.438Z,21
2016-12-29T14:50:07.480Z,21
2016-12-29T14:52:09.789Z,21
2016-12-29T14:54:09.008Z,21
2016-12-29T14:56:06.673Z,21
2016-12-29T14:58:09.085Z,21
2016-12-29T15:00:06.823Z,21
2016-12-29T15:02:06.949Z,21
2016-12-29T15:04:06.826Z,21
2016-12-29T15:06:06.610Z,21
2016-12-29T15:08:07.761Z,21
2016-12-29T15:10:09.018Z,21
2016-12-29T15:12:09.277Z,21
2016-12-29T15:14:12.071Z,21
2016-12-29T15:16:09.359Z,21
2016-12-29T15:18:14.856Z,21
2016-12-29T15:20:06.902Z,21
2016-12-29T15:22:06.795Z,21
2016-12-29T15:24:06.517Z,21
2016-12-29T15:26:07.441Z,21
2016-12-29T15:28:08.241Z,21
2016-12-29T15:30:09.531Z,21
2016-12-29T15:32:10.190Z,21
2016-12-29T15:34:06.903Z,21
2016-12-29T15:36:06.814Z,21
2016-12-29T15:38:06.536Z,21
2016-12-29T15:40:09.814Z,21
2016-12-29T15:42:06.499Z,21
2016-12-29T15:44:09.929Z,21
2016-12-29T15:46:06.661Z,21
2016-12-29T15:48:07.496Z,21
2016-12-29T15:50:07.347Z,21
2016-12-29T15:52:07.500Z,21
2016-12-29T15:54:07.263Z,21
2016-12-29T15:56:12.181Z,21
2016-12-29T15:58:06.887Z,21
2016-12-29T16:00:06.573Z,21
2016-12-29T16:02:17.772Z,21
2016-12-29T16:04:06.517Z,21
2016-12-29T16:06:12.309Z,21
2016-12-29T16:08:09.806Z,21
2016-12-29T16:10:06.478Z,21
2016-12-29T16:12:07.396Z,21
2016-12-29T16:14:14.834Z,21
2016-12-29T16:16:09.043Z,21
2016-12-29T16:18:06.925Z,21
2016-12-29T16:20:09.299Z,22
2016-12-29T16:22:08.043Z,21
2016-12-29T16:24:06.986Z,21
2016-12-29T16:26:07.033Z,21
2016-12-29T16:28:09.505Z,22
2016-12-29T16:30:07.322Z,21
2016-12-29T16:32:12.391Z,22
2016-12-29T16:34:12.184Z,22
2016-12-29T16:36:09.436Z,22
2016-12-29T16:38:07.148Z,21
2016-12-29T16:40:07.007Z,22
2016-12-29T16:42:06.678Z,22
2016-12-29T16:44:10.265Z,22
2016-12-29T16:46:06.961Z,21
2016-12-29T16:48:06.697Z,22
2016-12-29T16:50:09.297Z,22
2016-12-29T16:52:09.524Z,21
2016-12-29T16:54:09.812Z,22
2016-12-29T16:56:14.424Z,21
2016-12-29T16:58:09.797Z,21
2016-12-29T17:00:08.989Z,22
2016-12-29T17:02:09.252Z,22
2016-12-29T17:04:06.967Z,21
2016-12-29T17:06:06.690Z,22
2016-12-29T17:08:14.867Z,22
2016-12-29T17:10:09.098Z,21
2016-12-29T17:12:06.809Z,22
2016-12-29T17:14:09.342Z,22
2016-12-29T17:16:07.020Z,22
2016-12-29T17:18:06.948Z,22
2016-12-29T17:20:07.020Z,22
2016-12-29T17:22:06.691Z,22
2016-12-29T17:24:07.398Z,22
2016-12-29T17:26:09.625Z,22
2016-12-29T17:28:07.469Z,22
2016-12-29T17:30:07.219Z,22
2016-12-29T17:32:09.467Z,22
2016-12-29T17:34:07.184Z,22
2016-12-29T17:36:06.969Z,23
2016-12-29T17:38:09.183Z,22
2016-12-29T17:40:12.158Z,23
2016-12-29T17:42:06.886Z,24
2016-12-29T17:44:09.495Z,24
2016-12-29T17:46:07.457Z,24
2016-12-29T17:48:09.667Z,23
2016-12-29T17:50:15.070Z,22
2016-12-29T17:52:08.238Z,24
2016-12-29T17:54:07.018Z,23
2016-12-29T17:56:09.267Z,24
2016-12-29T17:58:07.306Z,24
2016-12-29T18:00:16.198Z,25
2016-12-29T18:02:06.902Z,23
2016-12-29T18:04:07.056Z,26
2016-12-29T18:06:09.331Z,26
2016-12-29T18:08:09.546Z,25
2016-12-29T18:10:07.656Z,26
2016-12-29T18:12:07.482Z,26
2016-12-29T18:14:19.777Z,24
2016-12-29T18:16:14.249Z,26
2016-12-29T18:18:07.182Z,25
2016-12-29T18:20:06.878Z,26
2016-12-29T18:22:09.498Z,26
2016-12-29T18:24:12.318Z,25
2016-12-29T18:26:07.078Z,26
2016-12-29T18:28:06.982Z,26
2016-12-29T18:30:06.683Z,26
2016-12-29T18:32:20.160Z,24
2016-12-29T18:34:17.155Z,26
2016-12-29T18:36:22.056Z,27
2016-12-29T18:38:08.204Z,26
2016-12-29T18:40:09.625Z,26
2016-12-29T18:42:09.944Z,27
2016-12-29T18:44:09.147Z,27
2016-12-29T18:46:07.233Z,25
2016-12-29T18:48:07.382Z,27
2016-12-29T18:50:09.721Z,27
2016-12-29T18:52:06.686Z,27
2016-12-29T18:54:07.384Z,27
2016-12-29T18:56:07.147Z,27
2016-12-29T18:58:09.558Z,27
2016-12-29T19:00:07.278Z,26
2016-12-29T19:02:07.076Z,27
2016-12-29T19:04:17.131Z,24
2016-12-29T19:06:09.436Z,24
2016-12-29T19:08:07.256Z,27
2016-12-29T19:10:07.182Z,26
2016-12-29T19:12:14.550Z,24
2016-12-29T19:14:07.347Z,24
2016-12-29T19:16:07.716Z,26
2016-12-29T19:18:14.407Z,24
2016-12-29T19:20:09.825Z,24
2016-12-29T19:22:09.193Z,25
2016-12-29T19:24:12.093Z,26
2016-12-29T19:26:09.338Z,26
2016-12-29T19:28:14.792Z,24
2016-12-29T19:30:09.091Z,24
2016-12-29T19:32:06.794Z,25
2016-12-29T19:34:07.001Z,25
2016-12-29T19:36:06.697Z,25
2016-12-29T19:38:06.371Z,25
2016-12-29T19:40:09.713Z,25
2016-12-29T19:42:09.071Z,25
2016-12-29T19:44:06.774Z,25
2016-12-29T19:46:07.041Z,25
2016-12-29T19:48:06.716Z,24
2016-12-29T19:50:15.135Z,23
2016-12-29T19:52:07.161Z,23
2016-12-29T19:54:06.875Z,24
2016-12-29T19:56:09.162Z,24
2016-12-29T19:58:09.427Z,24
2016-12-29T20:00:12.239Z,24
2016-12-29T20:02:06.948Z,24
2016-12-29T20:04:06.859Z,24
2016-12-29T20:06:08.082Z,24
2016-12-29T20:08:08.175Z,24
2016-12-29T20:10:06.942Z,24
2016-12-29T20:12:07.889Z,24
2016-12-29T20:14:10.348Z,24
2016-12-29T20:16:09.723Z,24
2016-12-29T20:18:06.644Z,22
2016-12-29T20:20:07.358Z,24
2016-12-29T20:22:17.393Z,23
2016-12-29T20:24:07.183Z,22
2016-12-29T20:26:16.976Z,22
2016-12-29T20:28:11.969Z,22
2016-12-29T20:30:11.752Z,22
2016-12-29T20:32:06.473Z,22
2016-12-29T20:34:07.595Z,24
2016-12-29T20:36:09.830Z,24
2016-12-29T20:38:07.528Z,22
2016-12-29T20:40:12.416Z,24
2016-12-29T20:42:10.333Z,24
2016-12-29T20:44:10.556Z,24
2016-12-29T20:46:10.131Z,22
2016-12-29T20:48:07.044Z,24
2016-12-29T20:50:10.471Z,23
2016-12-29T20:52:07.338Z,22
2016-12-29T20:54:07.047Z,24
2016-12-29T20:56:14.795Z,24
2016-12-29T20:58:09.302Z,24
2016-12-29T21:00:06.982Z,22
2016-12-29T21:02:06.651Z,23
2016-12-29T21:04:07.492Z,23
2016-12-29T21:06:09.817Z,23
2016-12-29T21:08:16.616Z,22
2016-12-29T21:10:07.894Z,21
2016-12-29T21:12:07.001Z,23
2016-12-29T21:14:07.710Z,24
2016-12-29T21:16:07.082Z,23
2016-12-29T21:18:07.138Z,23
2016-12-29T21:20:15.485Z,23
2016-12-29T21:22:10.244Z,22
2016-12-29T21:24:07.181Z,23
2016-12-29T21:26:07.193Z,23
2016-12-29T21:28:09.612Z,22
2016-12-29T21:30:07.446Z,24
2016-12-29T21:32:07.186Z,21
2016-12-29T21:34:07.285Z,23
2016-12-29T21:36:09.790Z,23
2016-12-29T21:38:07.517Z,22
2016-12-29T21:40:09.947Z,23
2016-12-29T21:42:06.672Z,23
2016-12-29T21:44:12.854Z,22
2016-12-29T21:46:11.713Z,22
2016-12-29T21:48:06.499Z,22
2016-12-29T21:50:08.212Z,23
2016-12-29T21:52:07.173Z,22
2016-12-29T21:54:06.900Z,22
2016-12-29T21:56:06.681Z,22
2016-12-29T21:58:06.746Z,23
2016-12-29T22:00:11.562Z,21
2016-12-29T22:02:07.299Z,21
2016-12-29T22:04:20.015Z,22
2016-12-29T22:06:09.289Z,22
2016-12-29T22:08:07.103Z,22
2016-12-29T22:10:24.875Z,22
2016-12-29T22:12:06.620Z,22
2016-12-29T22:14:09.938Z,22
2016-12-29T22:16:11.657Z,21
2016-12-29T22:18:06.586Z,22
2016-12-29T22:20:07.238Z,23
2016-12-29T22:22:12.198Z,22
2016-12-29T22:24:06.877Z,21
2016-12-29T22:26:06.582Z,22
2016-12-29T22:28:07.271Z,22
2016-12-29T22:30:07.226Z,22
2016-12-29T22:32:07.522Z,22
2016-12-29T22:34:07.271Z,22
2016-12-29T22:36:07.168Z,22
2016-12-29T22:38:17.029Z,21
2016-12-29T22:40:06.790Z,21
2016-12-29T22:42:09.040Z,22
2016-12-29T22:44:06.897Z,22
2016-12-29T22:46:14.778Z,21
2016-12-29T22:48:06.619Z,21
2016-12-29T22:50:12.412Z,21
2016-12-29T22:52:07.129Z,21
2016-12-29T22:54:06.850Z,21
2016-12-29T22:56:09.131Z,22
2016-12-29T22:58:07.165Z,21
2016-12-29T23:00:07.118Z,21
2016-12-29T23:02:06.865Z,21
2016-12-29T23:04:06.895Z,21
2016-12-29T23:06:06.686Z,21
2016-12-29T23:08:11.430Z,22
2016-12-29T23:10:07.202Z,21
2016-12-29T23:12:06.936Z,21
2016-12-29T23:14:09.185Z,21
2016-12-29T23:16:07.943Z,21
2016-12-29T23:18:09.461Z,21
2016-12-29T23:20:12.549Z,21
2016-12-29T23:22:12.771Z,22
2016-12-29T23:24:06.499Z,21
2016-12-29T23:26:07.265Z,21
2016-12-29T23:28:09.847Z,21
2016-12-29T23:30:06.575Z,21
2016-12-29T23:32:07.343Z,22
2016-12-29T23:34:12.475Z,21
2016-12-29T23:36:07.396Z,21
2016-12-29T23:38:09.640Z,21
2016-12-29T23:40:07.696Z,21
2016-12-29T23:42:14.072Z,21
2016-12-29T23:44:06.843Z,21
2016-12-29T23:46:06.979Z,21
2016-12-29T23:48:07.011Z,22
2016-12-29T23:50:06.823Z,22
2016-12-29T23:52:06.614Z,21
2016-12-29T23:54:07.365Z,21
2016-12-29T23:56:07.083Z,21
2016-12-29T23:58:06.973Z,21
